sensor_id;sensor_type;location;lat;lon;timestamp;P1;durP1;ratioP1;P2;durP2;ratioP2
37495;SDS011;23346;52.088;4.746;2023-10-19T00:00:30;192.73;;;184.03;;
37495;SDS011;23346;52.088;4.746;2023-10-19T00:02:58;188.43;;;179.87;;
37495;SDS011;23346;52.088;4.746;2023-10-19T00:05:27;187.70;;;179.20;;
37495;SDS011;23346;52.088;4.746;2023-10-19T00:07:54;196.60;;;187.73;;
37495;SDS011;23346;52.088;4.746;2023-10-19T00:10:22;188.60;;;180.07;;
37495;SDS011;23346;52.088;4.746;2023-10-19T00:12:50;184.53;;;176.13;;
37495;SDS011;23346;52.088;4.746;2023-10-19T00:15:24;182.23;;;173.93;;
37495;SDS011;23346;52.088;4.746;2023-10-19T00:17:55;177.13;;;169.03;;
37495;SDS011;23346;52.088;4.746;2023-10-19T00:20:21;182.00;;;173.73;;
37495;SDS011;23346;52.088;4.746;2023-10-19T00:23:10;185.30;;;176.90;;
37495;SDS011;23346;52.088;4.746;2023-10-19T00:25:38;194.60;;;185.80;;
37495;SDS011;23346;52.088;4.746;2023-10-19T00:28:06;184.20;;;175.83;;
37495;SDS011;23346;52.088;4.746;2023-10-19T00:30:32;185.93;;;177.53;;
37495;SDS011;23346;52.088;4.746;2023-10-19T00:33:01;182.27;;;173.97;;
37495;SDS011;23346;52.088;4.746;2023-10-19T00:35:30;179.13;;;170.93;;
37495;SDS011;23346;52.088;4.746;2023-10-19T00:37:59;187.80;;;179.30;;
37495;SDS011;23346;52.088;4.746;2023-10-19T00:41:05;185.03;;;176.63;;
37495;SDS011;23346;52.088;4.746;2023-10-19T00:43:32;180.60;;;172.40;;
37495;SDS011;23346;52.088;4.746;2023-10-19T00:46:02;195.53;;;186.70;;
37495;SDS011;23346;52.088;4.746;2023-10-19T00:48:31;198.50;;;189.50;;
37495;SDS011;23346;52.088;4.746;2023-10-19T00:50:58;191.30;;;182.60;;
37495;SDS011;23346;52.088;4.746;2023-10-19T00:53:37;202.47;;;193.33;;
37495;SDS011;23346;52.088;4.746;2023-10-19T00:56:07;201.70;;;192.60;;
37495;SDS011;23346;52.088;4.746;2023-10-19T00:58:35;207.80;;;198.40;;
37495;SDS011;23346;52.088;4.746;2023-10-19T01:01:02;216.83;;;207.10;;
37495;SDS011;23346;52.088;4.746;2023-10-19T01:03:32;211.80;;;202.20;;
37495;SDS011;23346;52.088;4.746;2023-10-19T01:06:02;214.43;;;204.73;;
37495;SDS011;23346;52.088;4.746;2023-10-19T01:08:34;226.60;;;216.40;;
37495;SDS011;23346;52.088;4.746;2023-10-19T01:11:06;213.20;;;203.53;;
37495;SDS011;23346;52.088;4.746;2023-10-19T01:13:35;231.40;;;221.03;;
37495;SDS011;23346;52.088;4.746;2023-10-19T01:16:01;234.90;;;224.33;;
37495;SDS011;23346;52.088;4.746;2023-10-19T01:18:29;240.50;;;229.70;;
37495;SDS011;23346;52.088;4.746;2023-10-19T01:20:58;250.90;;;239.60;;
37495;SDS011;23346;52.088;4.746;2023-10-19T01:23:29;249.50;;;238.20;;
37495;SDS011;23346;52.088;4.746;2023-10-19T01:25:57;256.90;;;245.30;;
37495;SDS011;23346;52.088;4.746;2023-10-19T01:31:10;257.23;;;245.57;;
37495;SDS011;23346;52.088;4.746;2023-10-19T01:33:42;263.37;;;251.43;;
37495;SDS011;23346;52.088;4.746;2023-10-19T01:36:09;280.70;;;268.10;;
37495;SDS011;23346;52.088;4.746;2023-10-19T01:38:47;268.03;;;255.90;;
37495;SDS011;23346;52.088;4.746;2023-10-19T01:41:13;272.23;;;259.90;;
37495;SDS011;23346;52.088;4.746;2023-10-19T01:43:43;265.83;;;253.77;;
37495;SDS011;23346;52.088;4.746;2023-10-19T01:46:10;285.27;;;272.33;;
37495;SDS011;23346;52.088;4.746;2023-10-19T01:48:37;275.93;;;263.33;;
37495;SDS011;23346;52.088;4.746;2023-10-19T01:51:05;291.37;;;278.13;;
37495;SDS011;23346;52.088;4.746;2023-10-19T01:53:32;295.20;;;281.73;;
37495;SDS011;23346;52.088;4.746;2023-10-19T01:55:58;299.17;;;285.50;;
37495;SDS011;23346;52.088;4.746;2023-10-19T01:58:25;287.07;;;273.93;;
37495;SDS011;23346;52.088;4.746;2023-10-19T02:00:54;297.73;;;284.17;;
37495;SDS011;23346;52.088;4.746;2023-10-19T02:03:28;288.03;;;274.83;;
37495;SDS011;23346;52.088;4.746;2023-10-19T02:06:00;314.27;;;299.87;;
37495;SDS011;23346;52.088;4.746;2023-10-19T02:08:35;303.30;;;289.37;;
37495;SDS011;23346;52.088;4.746;2023-10-19T02:11:03;311.80;;;297.47;;
37495;SDS011;23346;52.088;4.746;2023-10-19T02:13:34;304.93;;;290.93;;
37495;SDS011;23346;52.088;4.746;2023-10-19T02:16:00;295.37;;;281.77;;
37495;SDS011;23346;52.088;4.746;2023-10-19T02:18:26;302.85;;;288.95;;
37495;SDS011;23346;52.088;4.746;2023-10-19T02:20:52;298.07;;;284.40;;
37495;SDS011;23346;52.088;4.746;2023-10-19T02:23:18;303.60;;;289.70;;
37495;SDS011;23346;52.088;4.746;2023-10-19T02:25:44;299.80;;;286.10;;
37495;SDS011;23346;52.088;4.746;2023-10-19T02:28:10;302.80;;;288.90;;
37495;SDS011;23346;52.088;4.746;2023-10-19T02:30:36;276.70;;;264.13;;
37495;SDS011;23346;52.088;4.746;2023-10-19T02:33:05;284.27;;;271.30;;
37495;SDS011;23346;52.088;4.746;2023-10-19T02:35:32;262.03;;;250.13;;
37495;SDS011;23346;52.088;4.746;2023-10-19T02:38:00;257.47;;;245.83;;
37495;SDS011;23346;52.088;4.746;2023-10-19T02:40:29;256.30;;;244.73;;
37495;SDS011;23346;52.088;4.746;2023-10-19T02:42:56;250.93;;;239.63;;
37495;SDS011;23346;52.088;4.746;2023-10-19T02:45:27;231.73;;;221.23;;
37495;SDS011;23346;52.088;4.746;2023-10-19T02:47:56;226.43;;;216.13;;
37495;SDS011;23346;52.088;4.746;2023-10-19T02:50:23;234.70;;;224.10;;
37495;SDS011;23346;52.088;4.746;2023-10-19T02:52:51;216.13;;;206.37;;
37495;SDS011;23346;52.088;4.746;2023-10-19T02:55:18;195.73;;;186.90;;
37495;SDS011;23346;52.088;4.746;2023-10-19T02:57:48;193.30;;;184.50;;
37495;SDS011;23346;52.088;4.746;2023-10-19T03:00:15;177.57;;;169.43;;
37495;SDS011;23346;52.088;4.746;2023-10-19T03:02:45;183.67;;;175.27;;
37495;SDS011;23346;52.088;4.746;2023-10-19T03:05:11;180.47;;;172.27;;
37495;SDS011;23346;52.088;4.746;2023-10-19T03:07:43;171.67;;;163.87;;
37495;SDS011;23346;52.088;4.746;2023-10-19T03:10:10;177.70;;;169.57;;
37495;SDS011;23346;52.088;4.746;2023-10-19T03:12:48;173.47;;;165.57;;
37495;SDS011;23346;52.088;4.746;2023-10-19T03:15:14;159.00;;;151.73;;
37495;SDS011;23346;52.088;4.746;2023-10-19T03:17:41;146.83;;;140.20;;
37495;SDS011;23346;52.088;4.746;2023-10-19T03:20:07;139.33;;;133.07;;
37495;SDS011;23346;52.088;4.746;2023-10-19T03:22:36;124.45;;;118.90;;
37495;SDS011;23346;52.088;4.746;2023-10-19T03:25:03;154.07;;;147.10;;
37495;SDS011;23346;52.088;4.746;2023-10-19T03:27:48;115.30;;;110.17;;
37495;SDS011;23346;52.088;4.746;2023-10-19T03:30:14;123.13;;;117.63;;
37495;SDS011;23346;52.088;4.746;2023-10-19T03:32:43;127.30;;;121.60;;
37495;SDS011;23346;52.088;4.746;2023-10-19T03:35:09;126.67;;;121.00;;
37495;SDS011;23346;52.088;4.746;2023-10-19T03:37:40;96.40;;;92.17;;
37495;SDS011;23346;52.088;4.746;2023-10-19T03:40:07;100.77;;;96.30;;
37495;SDS011;23346;52.088;4.746;2023-10-19T03:42:35;96.63;;;92.37;;
37495;SDS011;23346;52.088;4.746;2023-10-19T03:45:06;90.97;;;86.97;;
37495;SDS011;23346;52.088;4.746;2023-10-19T03:47:38;77.47;;;74.07;;
37495;SDS011;23346;52.088;4.746;2023-10-19T03:50:04;91.77;;;87.73;;
37495;SDS011;23346;52.088;4.746;2023-10-19T03:52:38;77.47;;;74.07;;
37495;SDS011;23346;52.088;4.746;2023-10-19T03:55:05;90.90;;;86.90;;
37495;SDS011;23346;52.088;4.746;2023-10-19T03:57:36;69.63;;;66.60;;
37495;SDS011;23346;52.088;4.746;2023-10-19T04:00:06;75.73;;;72.43;;
37495;SDS011;23346;52.088;4.746;2023-10-19T04:02:36;86.40;;;82.60;;
37495;SDS011;23346;52.088;4.746;2023-10-19T04:05:03;83.53;;;79.87;;
37495;SDS011;23346;52.088;4.746;2023-10-19T04:07:29;87.17;;;83.37;;
37495;SDS011;23346;52.088;4.746;2023-10-19T04:09:56;86.03;;;82.27;;
37495;SDS011;23346;52.088;4.746;2023-10-19T04:12:31;91.17;;;87.17;;
37495;SDS011;23346;52.088;4.746;2023-10-19T04:15:00;82.80;;;79.17;;
37495;SDS011;23346;52.088;4.746;2023-10-19T04:17:35;94.33;;;90.13;;
37495;SDS011;23346;52.088;4.746;2023-10-19T04:20:05;89.57;;;85.63;;
37495;SDS011;23346;52.088;4.746;2023-10-19T04:22:47;86.33;;;82.53;;
37495;SDS011;23346;52.088;4.746;2023-10-19T04:25:14;84.73;;;81.03;;
37495;SDS011;23346;52.088;4.746;2023-10-19T04:27:50;90.50;;;86.50;;
37495;SDS011;23346;52.088;4.746;2023-10-19T04:30:17;86.57;;;82.77;;
37495;SDS011;23346;52.088;4.746;2023-10-19T04:32:47;94.23;;;90.10;;
37495;SDS011;23346;52.088;4.746;2023-10-19T04:35:14;90.37;;;86.37;;
37495;SDS011;23346;52.088;4.746;2023-10-19T04:37:49;70.10;;;67.00;;
37495;SDS011;23346;52.088;4.746;2023-10-19T04:40:17;87.77;;;83.93;;
37495;SDS011;23346;52.088;4.746;2023-10-19T04:42:43;86.63;;;82.83;;
37495;SDS011;23346;52.088;4.746;2023-10-19T04:45:09;95.20;;;91.00;;
37495;SDS011;23346;52.088;4.746;2023-10-19T04:47:37;83.73;;;80.03;;
37495;SDS011;23346;52.088;4.746;2023-10-19T04:50:03;96.37;;;92.10;;
37495;SDS011;23346;52.088;4.746;2023-10-19T04:52:29;96.80;;;92.53;;
37495;SDS011;23346;52.088;4.746;2023-10-19T04:54:55;100.17;;;95.77;;
37495;SDS011;23346;52.088;4.746;2023-10-19T04:57:21;83.03;;;79.40;;
37495;SDS011;23346;52.088;4.746;2023-10-19T04:59:47;79.00;;;75.53;;
37495;SDS011;23346;52.088;4.746;2023-10-19T05:02:13;89.33;;;85.43;;
37495;SDS011;23346;52.088;4.746;2023-10-19T05:04:39;79.83;;;76.33;;
37495;SDS011;23346;52.088;4.746;2023-10-19T05:07:06;87.20;;;83.40;;
37495;SDS011;23346;52.088;4.746;2023-10-19T05:09:34;85.10;;;81.37;;
37495;SDS011;23346;52.088;4.746;2023-10-19T05:12:03;78.63;;;75.20;;
37495;SDS011;23346;52.088;4.746;2023-10-19T05:14:34;77.28;;;73.88;;
37495;SDS011;23346;52.088;4.746;2023-10-19T05:17:00;69.00;;;66.00;;
37495;SDS011;23346;52.088;4.746;2023-10-19T05:19:29;75.00;;;71.70;;
37495;SDS011;23346;52.088;4.746;2023-10-19T05:21:56;75.70;;;72.40;;
37495;SDS011;23346;52.088;4.746;2023-10-19T05:24:21;54.93;;;52.53;;
37495;SDS011;23346;52.088;4.746;2023-10-19T05:26:48;56.83;;;54.33;;
37495;SDS011;23346;52.088;4.746;2023-10-19T05:29:14;61.27;;;58.57;;
37495;SDS011;23346;52.088;4.746;2023-10-19T05:31:40;50.83;;;48.63;;
37495;SDS011;23346;52.088;4.746;2023-10-19T05:34:06;60.40;;;57.77;;
37495;SDS011;23346;52.088;4.746;2023-10-19T05:36:33;54.77;;;52.40;;
37495;SDS011;23346;52.088;4.746;2023-10-19T05:38:59;49.90;;;47.77;;
37495;SDS011;23346;52.088;4.746;2023-10-19T05:41:25;54.07;;;51.73;;
37495;SDS011;23346;52.088;4.746;2023-10-19T05:43:51;56.40;;;53.97;;
37495;SDS011;23346;52.088;4.746;2023-10-19T05:46:18;46.63;;;44.63;;
37495;SDS011;23346;52.088;4.746;2023-10-19T05:48:47;43.27;;;41.40;;
37495;SDS011;23346;52.088;4.746;2023-10-19T05:51:14;48.03;;;45.97;;
37495;SDS011;23346;52.088;4.746;2023-10-19T05:53:40;49.73;;;47.60;;
37495;SDS011;23346;52.088;4.746;2023-10-19T05:56:06;49.87;;;47.73;;
37495;SDS011;23346;52.088;4.746;2023-10-19T05:58:32;58.60;;;56.07;;
37495;SDS011;23346;52.088;4.746;2023-10-19T06:00:59;52.17;;;49.93;;
37495;SDS011;23346;52.088;4.746;2023-10-19T06:03:25;50.03;;;47.87;;
37495;SDS011;23346;52.088;4.746;2023-10-19T06:05:51;56.53;;;54.07;;
37495;SDS011;23346;52.088;4.746;2023-10-19T06:08:21;62.13;;;59.43;;
37495;SDS011;23346;52.088;4.746;2023-10-19T06:10:50;66.83;;;63.90;;
37495;SDS011;23346;52.088;4.746;2023-10-19T06:13:16;55.13;;;52.73;;
37495;SDS011;23346;52.088;4.746;2023-10-19T06:15:42;51.93;;;49.70;;
37495;SDS011;23346;52.088;4.746;2023-10-19T06:18:09;49.37;;;47.27;;
37495;SDS011;23346;52.088;4.746;2023-10-19T06:20:35;51.07;;;48.87;;
37495;SDS011;23346;52.088;4.746;2023-10-19T06:23:01;49.30;;;47.20;;
37495;SDS011;23346;52.088;4.746;2023-10-19T06:25:31;46.83;;;44.83;;
37495;SDS011;23346;52.088;4.746;2023-10-19T06:27:57;44.83;;;42.93;;
37495;SDS011;23346;52.088;4.746;2023-10-19T06:30:24;43.47;;;41.60;;
37495;SDS011;23346;52.088;4.746;2023-10-19T06:32:52;37.10;;;35.53;;
37495;SDS011;23346;52.088;4.746;2023-10-19T06:35:18;40.13;;;38.43;;
37495;SDS011;23346;52.088;4.746;2023-10-19T06:37:45;42.73;;;40.93;;
37495;SDS011;23346;52.088;4.746;2023-10-19T06:40:11;51.53;;;49.30;;
37495;SDS011;23346;52.088;4.746;2023-10-19T06:42:40;46.70;;;44.70;;
37495;SDS011;23346;52.088;4.746;2023-10-19T06:45:06;45.43;;;43.47;;
37495;SDS011;23346;52.088;4.746;2023-10-19T06:47:32;44.30;;;42.40;;
37495;SDS011;23346;52.088;4.746;2023-10-19T06:50:03;41.50;;;39.73;;
37495;SDS011;23346;52.088;4.746;2023-10-19T06:52:30;39.03;;;37.37;;
37495;SDS011;23346;52.088;4.746;2023-10-19T06:54:57;43.07;;;41.23;;
37495;SDS011;23346;52.088;4.746;2023-10-19T06:57:23;36.10;;;34.60;;
37495;SDS011;23346;52.088;4.746;2023-10-19T06:59:49;47.20;;;45.20;;
37495;SDS011;23346;52.088;4.746;2023-10-19T07:02:17;46.90;;;44.90;;
37495;SDS011;23346;52.088;4.746;2023-10-19T07:04:45;41.87;;;40.07;;
37495;SDS011;23346;52.088;4.746;2023-10-19T07:07:12;46.03;;;44.03;;
37495;SDS011;23346;52.088;4.746;2023-10-19T07:09:39;42.00;;;40.20;;
37495;SDS011;23346;52.088;4.746;2023-10-19T07:12:06;40.53;;;38.83;;
37495;SDS011;23346;52.088;4.746;2023-10-19T07:14:33;41.53;;;39.73;;
37495;SDS011;23346;52.088;4.746;2023-10-19T07:16:59;40.97;;;39.23;;
37495;SDS011;23346;52.088;4.746;2023-10-19T07:19:25;43.50;;;41.63;;
37495;SDS011;23346;52.088;4.746;2023-10-19T07:21:51;44.57;;;42.67;;
37495;SDS011;23346;52.088;4.746;2023-10-19T07:24:25;55.97;;;53.57;;
37495;SDS011;23346;52.088;4.746;2023-10-19T07:26:51;49.27;;;47.17;;
37495;SDS011;23346;52.088;4.746;2023-10-19T07:29:30;41.60;;;39.80;;
37495;SDS011;23346;52.088;4.746;2023-10-19T07:31:56;50.33;;;48.13;;
37495;SDS011;23346;52.088;4.746;2023-10-19T07:34:23;49.33;;;47.23;;
37495;SDS011;23346;52.088;4.746;2023-10-19T07:36:54;61.43;;;58.77;;
37495;SDS011;23346;52.088;4.746;2023-10-19T07:39:20;55.63;;;53.23;;
37495;SDS011;23346;52.088;4.746;2023-10-19T07:41:47;53.90;;;51.60;;
37495;SDS011;23346;52.088;4.746;2023-10-19T07:44:13;74.88;;;71.60;;
37495;SDS011;23346;52.088;4.746;2023-10-19T07:46:40;75.13;;;71.87;;
37495;SDS011;23346;52.088;4.746;2023-10-19T07:49:05;73.97;;;70.78;;
37495;SDS011;23346;52.088;4.746;2023-10-19T07:51:33;59.80;;;57.20;;
37495;SDS011;23346;52.088;4.746;2023-10-19T07:53:59;71.97;;;68.80;;
37495;SDS011;23346;52.088;4.746;2023-10-19T07:56:25;67.55;;;64.60;;
37495;SDS011;23346;52.088;4.746;2023-10-19T07:58:51;70.25;;;67.20;;
37495;SDS011;23346;52.088;4.746;2023-10-19T08:01:17;79.90;;;76.40;;
37495;SDS011;23346;52.088;4.746;2023-10-19T08:03:43;71.28;;;68.18;;
37495;SDS011;23346;52.088;4.746;2023-10-19T08:06:09;72.55;;;69.38;;
37495;SDS011;23346;52.088;4.746;2023-10-19T08:08:35;91.88;;;87.85;;
37495;SDS011;23346;52.088;4.746;2023-10-19T08:11:01;94.88;;;90.70;;
37495;SDS011;23346;52.088;4.746;2023-10-19T08:13:27;98.05;;;93.75;;
37495;SDS011;23346;52.088;4.746;2023-10-19T08:15:53;104.78;;;100.13;;
37495;SDS011;23346;52.088;4.746;2023-10-19T08:18:20;114.57;;;109.50;;
37495;SDS011;23346;52.088;4.746;2023-10-19T08:20:46;117.20;;;111.97;;
37495;SDS011;23346;52.088;4.746;2023-10-19T08:23:14;104.10;;;99.50;;
37495;SDS011;23346;52.088;4.746;2023-10-19T08:25:41;123.50;;;117.97;;
37495;SDS011;23346;52.088;4.746;2023-10-19T08:28:09;145.00;;;138.43;;
37495;SDS011;23346;52.088;4.746;2023-10-19T08:30:36;134.60;;;128.55;;
37495;SDS011;23346;52.088;4.746;2023-10-19T08:33:02;135.50;;;129.40;;
37495;SDS011;23346;52.088;4.746;2023-10-19T08:35:28;135.40;;;129.30;;
37495;SDS011;23346;52.088;4.746;2023-10-19T08:37:56;147.23;;;140.52;;
37495;SDS011;23346;52.088;4.746;2023-10-19T08:40:22;161.63;;;154.27;;
37495;SDS011;23346;52.088;4.746;2023-10-19T08:42:51;135.52;;;129.43;;
37495;SDS011;23346;52.088;4.746;2023-10-19T08:45:18;140.27;;;133.93;;
37495;SDS011;23346;52.088;4.746;2023-10-19T08:47:53;165.15;;;157.63;;
37495;SDS011;23346;52.088;4.746;2023-10-19T08:50:26;198.35;;;189.38;;
37495;SDS011;23346;52.088;4.746;2023-10-19T08:52:54;228.57;;;218.20;;
37495;SDS011;23346;52.088;4.746;2023-10-19T08:55:20;232.57;;;222.02;;
37495;SDS011;23346;52.088;4.746;2023-10-19T08:57:48;339.67;;;323.75;;
37495;SDS011;23346;52.088;4.746;2023-10-19T09:00:14;443.08;;;420.88;;
37495;SDS011;23346;52.088;4.746;2023-10-19T09:02:47;534.05;;;505.85;;
37495;SDS011;23346;52.088;4.746;2023-10-19T09:05:13;501.83;;;475.90;;
37495;SDS011;23346;52.088;4.746;2023-10-19T09:07:48;384.63;;;365.80;;
37495;SDS011;23346;52.088;4.746;2023-10-19T09:10:24;334.23;;;318.38;;
37495;SDS011;23346;52.088;4.746;2023-10-19T09:13:03;307.52;;;293.15;;
37495;SDS011;23346;52.088;4.746;2023-10-19T09:15:30;319.77;;;304.73;;
37495;SDS011;23346;52.088;4.746;2023-10-19T09:17:58;344.92;;;328.48;;
37495;SDS011;23346;52.088;4.746;2023-10-19T09:20:24;360.90;;;343.67;;
37495;SDS011;23346;52.088;4.746;2023-10-19T09:22:55;361.65;;;344.45;;
37495;SDS011;23346;52.088;4.746;2023-10-19T09:25:23;390.90;;;372.00;;
37495;SDS011;23346;52.088;4.746;2023-10-19T09:27:49;403.08;;;383.35;;
37495;SDS011;23346;52.088;4.746;2023-10-19T09:30:17;420.30;;;399.63;;
37495;SDS011;23346;52.088;4.746;2023-10-19T09:32:45;405.48;;;385.55;;
37495;SDS011;23346;52.088;4.746;2023-10-19T09:35:11;392.05;;;372.88;;
37495;SDS011;23346;52.088;4.746;2023-10-19T09:37:41;376.83;;;358.52;;
37495;SDS011;23346;52.088;4.746;2023-10-19T09:40:08;362.27;;;345.02;;
37495;SDS011;23346;52.088;4.746;2023-10-19T09:42:40;354.13;;;337.35;;
37495;SDS011;23346;52.088;4.746;2023-10-19T09:45:11;319.70;;;304.73;;
37495;SDS011;23346;52.088;4.746;2023-10-19T09:47:38;308.08;;;293.73;;
37495;SDS011;23346;52.088;4.746;2023-10-19T09:50:05;293.20;;;279.60;;
37495;SDS011;23346;52.088;4.746;2023-10-19T09:52:32;289.30;;;276.00;;
37495;SDS011;23346;52.088;4.746;2023-10-19T09:55:00;288.05;;;274.75;;
37495;SDS011;23346;52.088;4.746;2023-10-19T09:57:34;277.33;;;264.67;;
37495;SDS011;23346;52.088;4.746;2023-10-19T10:00:02;264.80;;;252.68;;
37495;SDS011;23346;52.088;4.746;2023-10-19T10:02:43;276.90;;;264.15;;
37495;SDS011;23346;52.088;4.746;2023-10-19T10:05:44;261.17;;;249.30;;
37495;SDS011;23346;52.088;4.746;2023-10-19T10:10:43;239.63;;;228.68;;
37495;SDS011;23346;52.088;4.746;2023-10-19T10:15:54;239.43;;;228.50;;
37495;SDS011;23346;52.088;4.746;2023-10-19T10:18:20;217.82;;;207.95;;
37495;SDS011;23346;52.088;4.746;2023-10-19T10:21:04;225.05;;;214.80;;
37495;SDS011;23346;52.088;4.746;2023-10-19T10:23:31;221.07;;;211.00;;
37495;SDS011;23346;52.088;4.746;2023-10-19T10:25:59;223.93;;;213.73;;
37495;SDS011;23346;52.088;4.746;2023-10-19T10:28:25;204.00;;;194.63;;
37495;SDS011;23346;52.088;4.746;2023-10-19T10:33:47;229.80;;;219.35;;
37495;SDS011;23346;52.088;4.746;2023-10-19T10:36:14;212.70;;;203.02;;
37495;SDS011;23346;52.088;4.746;2023-10-19T10:38:41;211.60;;;201.93;;
37495;SDS011;23346;52.088;4.746;2023-10-19T10:41:08;219.95;;;209.95;;
37495;SDS011;23346;52.088;4.746;2023-10-19T10:43:50;184.68;;;176.20;;
37495;SDS011;23346;52.088;4.746;2023-10-19T10:46:20;169.80;;;162.00;;
37495;SDS011;23346;52.088;4.746;2023-10-19T10:48:49;138.88;;;132.60;;
37495;SDS011;23346;52.088;4.746;2023-10-19T10:51:22;130.43;;;124.57;;
37495;SDS011;23346;52.088;4.746;2023-10-19T10:53:49;114.65;;;109.55;;
37495;SDS011;23346;52.088;4.746;2023-10-19T10:56:15;115.85;;;110.70;;
37495;SDS011;23346;52.088;4.746;2023-10-19T10:58:41;102.32;;;97.82;;
37495;SDS011;23346;52.088;4.746;2023-10-19T11:01:07;83.00;;;79.32;;
37495;SDS011;23346;52.088;4.746;2023-10-19T11:03:35;72.43;;;69.22;;
37495;SDS011;23346;52.088;4.746;2023-10-19T11:06:07;61.78;;;59.08;;
37495;SDS011;23346;52.088;4.746;2023-10-19T11:08:34;45.65;;;43.70;;
37495;SDS011;23346;52.088;4.746;2023-10-19T11:11:04;40.38;;;38.67;;
37495;SDS011;23346;52.088;4.746;2023-10-19T11:13:31;37.15;;;35.55;;
37495;SDS011;23346;52.088;4.746;2023-10-19T11:16:00;39.42;;;37.72;;
37495;SDS011;23346;52.088;4.746;2023-10-19T11:18:31;34.65;;;33.15;;
37495;SDS011;23346;52.088;4.746;2023-10-19T11:20:57;33.17;;;31.77;;
37495;SDS011;23346;52.088;4.746;2023-10-19T11:26:02;31.20;;;29.90;;
37495;SDS011;23346;52.088;4.746;2023-10-19T11:28:30;31.67;;;30.38;;
37495;SDS011;23346;52.088;4.746;2023-10-19T11:31:13;32.25;;;30.90;;
37495;SDS011;23346;52.088;4.746;2023-10-19T11:33:40;29.95;;;28.70;;
37495;SDS011;23346;52.088;4.746;2023-10-19T11:36:07;30.38;;;29.08;;
37495;SDS011;23346;52.088;4.746;2023-10-19T11:38:33;29.17;;;27.98;;
37495;SDS011;23346;52.088;4.746;2023-10-19T11:41:00;29.73;;;28.52;;
37495;SDS011;23346;52.088;4.746;2023-10-19T11:43:28;28.25;;;27.05;;
37495;SDS011;23346;52.088;4.746;2023-10-19T11:45:54;26.58;;;25.48;;
37495;SDS011;23346;52.088;4.746;2023-10-19T11:48:20;26.58;;;25.48;;
37495;SDS011;23346;52.088;4.746;2023-10-19T11:50:47;26.77;;;25.67;;
37495;SDS011;23346;52.088;4.746;2023-10-19T11:53:13;26.77;;;25.67;;
37495;SDS011;23346;52.088;4.746;2023-10-19T11:55:39;28.02;;;26.83;;
37495;SDS011;23346;52.088;4.746;2023-10-19T11:58:07;26.73;;;25.63;;
37495;SDS011;23346;52.088;4.746;2023-10-19T12:00:36;28.63;;;27.42;;
37495;SDS011;23346;52.088;4.746;2023-10-19T12:03:03;30.05;;;28.77;;
37495;SDS011;23346;52.088;4.746;2023-10-19T12:05:29;33.20;;;31.80;;
37495;SDS011;23346;52.088;4.746;2023-10-19T12:07:55;31.88;;;30.58;;
37495;SDS011;23346;52.088;4.746;2023-10-19T12:10:21;30.23;;;28.92;;
37495;SDS011;23346;52.088;4.746;2023-10-19T12:12:54;26.77;;;25.67;;
37495;SDS011;23346;52.088;4.746;2023-10-19T12:15:21;26.60;;;25.50;;
37495;SDS011;23346;52.088;4.746;2023-10-19T12:17:48;22.55;;;21.65;;
37495;SDS011;23346;52.088;4.746;2023-10-19T12:20:15;23.48;;;22.48;;
37495;SDS011;23346;52.088;4.746;2023-10-19T12:22:46;24.10;;;23.10;;
37495;SDS011;23346;52.088;4.746;2023-10-19T12:25:13;23.30;;;22.33;;
37495;SDS011;23346;52.088;4.746;2023-10-19T12:27:40;22.13;;;21.23;;
37495;SDS011;23346;52.088;4.746;2023-10-19T12:30:06;25.60;;;24.55;;
37495;SDS011;23346;52.088;4.746;2023-10-19T12:32:44;26.33;;;25.23;;
37495;SDS011;23346;52.088;4.746;2023-10-19T12:35:10;30.58;;;29.27;;
37495;SDS011;23346;52.088;4.746;2023-10-19T12:37:37;31.65;;;30.35;;
37495;SDS011;23346;52.088;4.746;2023-10-19T12:40:11;32.00;;;30.67;;
37495;SDS011;23346;52.088;4.746;2023-10-19T12:42:51;36.30;;;34.78;;
37495;SDS011;23346;52.088;4.746;2023-10-19T12:45:19;37.90;;;36.30;;
37495;SDS011;23346;52.088;4.746;2023-10-19T12:47:45;40.20;;;38.50;;
37495;SDS011;23346;52.088;4.746;2023-10-19T12:50:11;42.42;;;40.63;;
37495;SDS011;23346;52.088;4.746;2023-10-19T12:52:38;46.72;;;44.72;;
37495;SDS011;23346;52.088;4.746;2023-10-19T12:55:05;48.65;;;46.55;;
37495;SDS011;23346;52.088;4.746;2023-10-19T12:57:31;53.20;;;50.90;;
37495;SDS011;23346;52.088;4.746;2023-10-19T12:59:58;47.97;;;45.88;;
37495;SDS011;23346;52.088;4.746;2023-10-19T13:02:31;41.83;;;40.03;;
37495;SDS011;23346;52.088;4.746;2023-10-19T13:04:57;41.88;;;40.08;;
37495;SDS011;23346;52.088;4.746;2023-10-19T13:07:24;35.95;;;34.45;;
37495;SDS011;23346;52.088;4.746;2023-10-19T13:09:51;34.30;;;32.88;;
37495;SDS011;23346;52.088;4.746;2023-10-19T13:12:17;32.80;;;31.40;;
37495;SDS011;23346;52.088;4.746;2023-10-19T13:14:48;31.05;;;29.75;;
37495;SDS011;23346;52.088;4.746;2023-10-19T13:17:14;29.23;;;28.02;;
37495;SDS011;23346;52.088;4.746;2023-10-19T13:19:40;29.17;;;27.98;;
37495;SDS011;23346;52.088;4.746;2023-10-19T13:22:06;31.27;;;29.98;;
37495;SDS011;23346;52.088;4.746;2023-10-19T13:24:32;31.27;;;29.98;;
37495;SDS011;23346;52.088;4.746;2023-10-19T13:27:06;32.70;;;31.30;;
37495;SDS011;23346;52.088;4.746;2023-10-19T13:29:32;34.17;;;32.75;;
37495;SDS011;23346;52.088;4.746;2023-10-19T13:32:02;30.50;;;29.20;;
37495;SDS011;23346;52.088;4.746;2023-10-19T13:34:28;34.17;;;32.78;;
37495;SDS011;23346;52.088;4.746;2023-10-19T13:36:54;34.17;;;32.75;;
37495;SDS011;23346;52.088;4.746;2023-10-19T13:39:21;34.35;;;32.92;;
37495;SDS011;23346;52.088;4.746;2023-10-19T13:41:50;32.20;;;30.85;;
37495;SDS011;23346;52.088;4.746;2023-10-19T13:44:17;31.55;;;30.25;;
37495;SDS011;23346;52.088;4.746;2023-10-19T13:46:45;29.83;;;28.60;;
37495;SDS011;23346;52.088;4.746;2023-10-19T13:49:11;29.42;;;28.20;;
37495;SDS011;23346;52.088;4.746;2023-10-19T13:51:38;31.98;;;30.63;;
37495;SDS011;23346;52.088;4.746;2023-10-19T13:54:04;32.53;;;31.15;;
37495;SDS011;23346;52.088;4.746;2023-10-19T13:56:31;33.90;;;32.50;;
37495;SDS011;23346;52.088;4.746;2023-10-19T13:58:57;32.25;;;30.90;;
37495;SDS011;23346;52.088;4.746;2023-10-19T14:01:24;31.45;;;30.15;;
37495;SDS011;23346;52.088;4.746;2023-10-19T14:03:53;37.17;;;35.58;;
37495;SDS011;23346;52.088;4.746;2023-10-19T14:06:22;35.13;;;33.63;;
37495;SDS011;23346;52.088;4.746;2023-10-19T14:08:50;35.72;;;34.22;;
37495;SDS011;23346;52.088;4.746;2023-10-19T14:11:16;32.08;;;30.75;;
37495;SDS011;23346;52.088;4.746;2023-10-19T14:13:42;31.27;;;29.98;;
37495;SDS011;23346;52.088;4.746;2023-10-19T14:16:09;28.80;;;27.60;;
37495;SDS011;23346;52.088;4.746;2023-10-19T14:18:35;35.35;;;33.85;;
37495;SDS011;23346;52.088;4.746;2023-10-19T14:21:10;34.65;;;33.17;;
37495;SDS011;23346;52.088;4.746;2023-10-19T14:23:36;41.17;;;39.42;;
37495;SDS011;23346;52.088;4.746;2023-10-19T14:26:05;40.15;;;38.45;;
37495;SDS011;23346;52.088;4.746;2023-10-19T14:28:31;37.72;;;36.13;;
37495;SDS011;23346;52.088;4.746;2023-10-19T14:30:57;42.67;;;40.88;;